sensor_id;sensor_type;location;lat;lon;timestamp;P1;durP1;ratioP1;P2;durP2;ratioP2
15281;SDS011;7742;44.320;19.820;2023-04-06T00:00:47;35.90;;;33.42;;
15281;SDS011;7742;44.320;19.820;2023-04-06T00:03:14;32.90;;;30.40;;
15281;SDS011;7742;44.320;19.820;2023-04-06T00:05:42;32.50;;;30.10;;
15281;SDS011;7742;44.320;19.820;2023-04-06T00:08:09;34.35;;;31.95;;
15281;SDS011;7742;44.320;19.820;2023-04-06T00:10:36;35.25;;;32.85;;
15281;SDS011;7742;44.320;19.820;2023-04-06T00:13:03;33.58;;;31.17;;
15281;SDS011;7742;44.320;19.820;2023-04-06T00:15:30;33.35;;;30.95;;
15281;SDS011;7742;44.320;19.820;2023-04-06T00:17:57;33.47;;;31.07;;
15281;SDS011;7742;44.320;19.820;2023-04-06T00:20:24;32.78;;;30.52;;
15281;SDS011;7742;44.320;19.820;2023-04-06T00:22:52;31.38;;;29.08;;
15281;SDS011;7742;44.320;19.820;2023-04-06T00:25:21;31.95;;;29.55;;
15281;SDS011;7742;44.320;19.820;2023-04-06T00:27:47;31.23;;;28.92;;
15281;SDS011;7742;44.320;19.820;2023-04-06T00:30:14;33.13;;;30.63;;
15281;SDS011;7742;44.320;19.820;2023-04-06T00:32:41;33.95;;;31.45;;
15281;SDS011;7742;44.320;19.820;2023-04-06T00:35:08;33.65;;;31.23;;
15281;SDS011;7742;44.320;19.820;2023-04-06T00:37:35;33.22;;;30.83;;
15281;SDS011;7742;44.320;19.820;2023-04-06T00:40:04;33.42;;;31.02;;
15281;SDS011;7742;44.320;19.820;2023-04-06T00:42:31;34.15;;;31.60;;
15281;SDS011;7742;44.320;19.820;2023-04-06T00:44:58;33.08;;;30.75;;
15281;SDS011;7742;44.320;19.820;2023-04-06T00:47:25;31.40;;;29.08;;
15281;SDS011;7742;44.320;19.820;2023-04-06T00:49:52;33.20;;;30.90;;
15281;SDS011;7742;44.320;19.820;2023-04-06T00:52:19;34.05;;;31.75;;
15281;SDS011;7742;44.320;19.820;2023-04-06T00:54:46;32.38;;;30.08;;
15281;SDS011;7742;44.320;19.820;2023-04-06T00:57:15;32.95;;;30.67;;
15281;SDS011;7742;44.320;19.820;2023-04-06T00:59:42;32.05;;;29.65;;
15281;SDS011;7742;44.320;19.820;2023-04-06T01:02:09;30.80;;;28.60;;
15281;SDS011;7742;44.320;19.820;2023-04-06T01:04:35;33.47;;;31.17;;
15281;SDS011;7742;44.320;19.820;2023-04-06T01:07:02;32.88;;;30.48;;
15281;SDS011;7742;44.320;19.820;2023-04-06T01:09:29;32.70;;;30.30;;
15281;SDS011;7742;44.320;19.820;2023-04-06T01:11:56;32.30;;;30.00;;
15281;SDS011;7742;44.320;19.820;2023-04-06T01:14:25;32.65;;;30.35;;
15281;SDS011;7742;44.320;19.820;2023-04-06T01:16:52;32.47;;;30.13;;
15281;SDS011;7742;44.320;19.820;2023-04-06T01:19:19;32.78;;;30.40;;
15281;SDS011;7742;44.320;19.820;2023-04-06T01:21:47;32.20;;;29.90;;
15281;SDS011;7742;44.320;19.820;2023-04-06T01:24:16;33.67;;;31.38;;
15281;SDS011;7742;44.320;19.820;2023-04-06T01:26:43;32.78;;;30.58;;
15281;SDS011;7742;44.320;19.820;2023-04-06T01:29:09;32.83;;;30.57;;
15281;SDS011;7742;44.320;19.820;2023-04-06T01:31:36;33.05;;;30.75;;
15281;SDS011;7742;44.320;19.820;2023-04-06T01:34:03;33.40;;;30.98;;
15281;SDS011;7742;44.320;19.820;2023-04-06T01:36:30;34.03;;;31.63;;
15281;SDS011;7742;44.320;19.820;2023-04-06T01:38:57;33.20;;;30.88;;
15281;SDS011;7742;44.320;19.820;2023-04-06T01:41:26;32.55;;;30.25;;
15281;SDS011;7742;44.320;19.820;2023-04-06T01:43:53;31.50;;;29.30;;
15281;SDS011;7742;44.320;19.820;2023-04-06T01:46:20;33.45;;;31.05;;
15281;SDS011;7742;44.320;19.820;2023-04-06T01:48:47;33.58;;;31.27;;
15281;SDS011;7742;44.320;19.820;2023-04-06T01:51:14;33.53;;;31.25;;
15281;SDS011;7742;44.320;19.820;2023-04-06T01:53:40;31.65;;;29.35;;
15281;SDS011;7742;44.320;19.820;2023-04-06T01:56:07;32.58;;;30.38;;
15281;SDS011;7742;44.320;19.820;2023-04-06T01:58:36;32.23;;;30.07;;
15281;SDS011;7742;44.320;19.820;2023-04-06T02:01:03;31.80;;;29.60;;
15281;SDS011;7742;44.320;19.820;2023-04-06T02:03:29;31.87;;;29.57;;
15281;SDS011;7742;44.320;19.820;2023-04-06T02:05:56;31.47;;;29.37;;
15281;SDS011;7742;44.320;19.820;2023-04-06T02:08:23;32.42;;;30.13;;
15281;SDS011;7742;44.320;19.820;2023-04-06T02:10:50;31.13;;;29.02;;
15281;SDS011;7742;44.320;19.820;2023-04-06T02:13:17;33.35;;;30.95;;
15281;SDS011;7742;44.320;19.820;2023-04-06T02:15:46;33.88;;;31.52;;
15281;SDS011;7742;44.320;19.820;2023-04-06T02:18:13;33.33;;;31.02;;
15281;SDS011;7742;44.320;19.820;2023-04-06T02:20:40;33.88;;;31.52;;
15281;SDS011;7742;44.320;19.820;2023-04-06T02:23:07;34.13;;;31.75;;
15281;SDS011;7742;44.320;19.820;2023-04-06T02:25:34;34.97;;;32.58;;
15281;SDS011;7742;44.320;19.820;2023-04-06T02:28:01;33.45;;;31.15;;
15281;SDS011;7742;44.320;19.820;2023-04-06T02:30:28;34.87;;;32.37;;
15281;SDS011;7742;44.320;19.820;2023-04-06T02:32:56;34.90;;;32.60;;
15281;SDS011;7742;44.320;19.820;2023-04-06T02:35:24;33.65;;;31.40;;
15281;SDS011;7742;44.320;19.820;2023-04-06T02:37:51;34.60;;;32.20;;
15281;SDS011;7742;44.320;19.820;2023-04-06T02:40:18;33.80;;;31.35;;
15281;SDS011;7742;44.320;19.820;2023-04-06T02:42:45;32.72;;;30.42;;
15281;SDS011;7742;44.320;19.820;2023-04-06T02:45:12;33.47;;;31.13;;
15281;SDS011;7742;44.320;19.820;2023-04-06T02:47:38;31.98;;;29.73;;
15281;SDS011;7742;44.320;19.820;2023-04-06T02:50:07;33.60;;;31.33;;
15281;SDS011;7742;44.320;19.820;2023-04-06T02:52:34;34.80;;;32.50;;
15281;SDS011;7742;44.320;19.820;2023-04-06T02:55:01;33.38;;;31.08;;
15281;SDS011;7742;44.320;19.820;2023-04-06T02:57:28;34.05;;;31.77;;
15281;SDS011;7742;44.320;19.820;2023-04-06T02:59:55;33.17;;;30.88;;
15281;SDS011;7742;44.320;19.820;2023-04-06T03:02:21;32.73;;;30.40;;
15281;SDS011;7742;44.320;19.820;2023-04-06T03:04:49;32.83;;;30.63;;
15281;SDS011;7742;44.320;19.820;2023-04-06T03:07:27;31.52;;;29.25;;
15281;SDS011;7742;44.320;19.820;2023-04-06T03:09:54;31.73;;;29.40;;
15281;SDS011;7742;44.320;19.820;2023-04-06T03:12:21;32.65;;;30.23;;
15281;SDS011;7742;44.320;19.820;2023-04-06T03:14:48;32.17;;;29.88;;
15281;SDS011;7742;44.320;19.820;2023-04-06T03:17:15;33.60;;;31.20;;
15281;SDS011;7742;44.320;19.820;2023-04-06T03:19:42;33.17;;;30.90;;
15281;SDS011;7742;44.320;19.820;2023-04-06T03:22:09;33.63;;;31.13;;
15281;SDS011;7742;44.320;19.820;2023-04-06T03:24:37;33.72;;;31.33;;
15281;SDS011;7742;44.320;19.820;2023-04-06T03:27:04;32.63;;;30.33;;
15281;SDS011;7742;44.320;19.820;2023-04-06T03:29:31;33.97;;;31.53;;
15281;SDS011;7742;44.320;19.820;2023-04-06T03:31:58;32.83;;;30.55;;
15281;SDS011;7742;44.320;19.820;2023-04-06T03:34:25;33.50;;;31.05;;
15281;SDS011;7742;44.320;19.820;2023-04-06T03:36:52;33.30;;;31.00;;
15281;SDS011;7742;44.320;19.820;2023-04-06T03:39:18;32.97;;;30.67;;
15281;SDS011;7742;44.320;19.820;2023-04-06T03:41:47;33.53;;;31.23;;
15281;SDS011;7742;44.320;19.820;2023-04-06T03:44:14;31.95;;;29.65;;
15281;SDS011;7742;44.320;19.820;2023-04-06T03:46:41;31.97;;;29.77;;
15281;SDS011;7742;44.320;19.820;2023-04-06T03:49:08;33.22;;;30.83;;
15281;SDS011;7742;44.320;19.820;2023-04-06T03:51:35;32.90;;;30.67;;
15281;SDS011;7742;44.320;19.820;2023-04-06T03:54:03;30.80;;;28.70;;
15281;SDS011;7742;44.320;19.820;2023-04-06T03:56:30;32.78;;;30.48;;
15281;SDS011;7742;44.320;19.820;2023-04-06T03:58:58;33.10;;;30.70;;
15281;SDS011;7742;44.320;19.820;2023-04-06T04:01:25;34.22;;;31.73;;
15281;SDS011;7742;44.320;19.820;2023-04-06T04:03:52;35.15;;;32.65;;
15281;SDS011;7742;44.320;19.820;2023-04-06T04:06:19;36.17;;;33.67;;
15281;SDS011;7742;44.320;19.820;2023-04-06T04:08:46;36.10;;;33.60;;
15281;SDS011;7742;44.320;19.820;2023-04-06T04:11:13;35.65;;;33.05;;
15281;SDS011;7742;44.320;19.820;2023-04-06T04:13:41;35.55;;;32.95;;
15281;SDS011;7742;44.320;19.820;2023-04-06T04:16:09;33.97;;;31.47;;
15281;SDS011;7742;44.320;19.820;2023-04-06T04:18:36;35.92;;;33.33;;
15281;SDS011;7742;44.320;19.820;2023-04-06T04:21:03;33.38;;;30.98;;
15281;SDS011;7742;44.320;19.820;2023-04-06T04:23:30;30.73;;;28.42;;
15281;SDS011;7742;44.320;19.820;2023-04-06T04:25:57;32.42;;;30.13;;
15281;SDS011;7742;44.320;19.820;2023-04-06T04:28:24;33.03;;;30.67;;
15281;SDS011;7742;44.320;19.820;2023-04-06T04:30:50;32.05;;;29.83;;
15281;SDS011;7742;44.320;19.820;2023-04-06T04:33:19;31.50;;;29.23;;
15281;SDS011;7742;44.320;19.820;2023-04-06T04:35:46;32.42;;;30.13;;
15281;SDS011;7742;44.320;19.820;2023-04-06T04:38:12;31.98;;;29.70;;
15281;SDS011;7742;44.320;19.820;2023-04-06T04:40:40;31.27;;;29.08;;
15281;SDS011;7742;44.320;19.820;2023-04-06T04:43:07;32.50;;;30.27;;
15281;SDS011;7742;44.320;19.820;2023-04-06T04:45:34;33.97;;;31.37;;
15281;SDS011;7742;44.320;19.820;2023-04-06T04:48:01;33.03;;;30.70;;
15281;SDS011;7742;44.320;19.820;2023-04-06T04:50:31;32.65;;;30.27;;
15281;SDS011;7742;44.320;19.820;2023-04-06T04:52:59;31.30;;;29.10;;
15281;SDS011;7742;44.320;19.820;2023-04-06T04:55:25;33.92;;;31.38;;
15281;SDS011;7742;44.320;19.820;2023-04-06T04:57:54;31.25;;;29.05;;
15281;SDS011;7742;44.320;19.820;2023-04-06T05:00:21;33.45;;;31.17;;
15281;SDS011;7742;44.320;19.820;2023-04-06T05:02:48;32.53;;;30.13;;
15281;SDS011;7742;44.320;19.820;2023-04-06T05:05:15;118.22;;;107.07;;
15281;SDS011;7742;44.320;19.820;2023-04-06T05:07:43;46.33;;;42.78;;
15281;SDS011;7742;44.320;19.820;2023-04-06T05:10:10;30.27;;;28.17;;
15281;SDS011;7742;44.320;19.820;2023-04-06T05:12:37;31.85;;;29.75;;
15281;SDS011;7742;44.320;19.820;2023-04-06T05:15:04;29.73;;;27.77;;
15281;SDS011;7742;44.320;19.820;2023-04-06T05:17:31;33.45;;;31.17;;
15281;SDS011;7742;44.320;19.820;2023-04-06T05:19:58;32.00;;;29.83;;
15281;SDS011;7742;44.320;19.820;2023-04-06T05:22:25;31.03;;;28.93;;
15281;SDS011;7742;44.320;19.820;2023-04-06T05:24:53;30.90;;;28.73;;
15281;SDS011;7742;44.320;19.820;2023-04-06T05:27:20;31.38;;;29.10;;
15281;SDS011;7742;44.320;19.820;2023-04-06T05:29:47;28.50;;;26.60;;
15281;SDS011;7742;44.320;19.820;2023-04-06T05:32:15;28.38;;;26.30;;
15281;SDS011;7742;44.320;19.820;2023-04-06T05:34:57;31.90;;;29.60;;
15281;SDS011;7742;44.320;19.820;2023-04-06T05:37:24;31.17;;;28.95;;
15281;SDS011;7742;44.320;19.820;2023-04-06T05:39:51;30.23;;;27.92;;
15281;SDS011;7742;44.320;19.820;2023-04-06T05:42:19;30.07;;;27.80;;
15281;SDS011;7742;44.320;19.820;2023-04-06T05:50:50;30.67;;;28.38;;
15281;SDS011;7742;44.320;19.820;2023-04-06T05:53:18;30.23;;;28.02;;
15281;SDS011;7742;44.320;19.820;2023-04-06T05:55:46;29.65;;;27.65;;
15281;SDS011;7742;44.320;19.820;2023-04-06T05:58:14;28.48;;;26.30;;
15281;SDS011;7742;44.320;19.820;2023-04-06T06:00:42;29.25;;;27.27;;
15281;SDS011;7742;44.320;19.820;2023-04-06T06:03:11;27.70;;;25.90;;
15281;SDS011;7742;44.320;19.820;2023-04-06T06:05:38;28.50;;;26.50;;
15281;SDS011;7742;44.320;19.820;2023-04-06T06:08:05;30.25;;;28.05;;
15281;SDS011;7742;44.320;19.820;2023-04-06T06:10:32;32.83;;;30.65;;
15281;SDS011;7742;44.320;19.820;2023-04-06T06:12:59;27.63;;;25.70;;
15281;SDS011;7742;44.320;19.820;2023-04-06T06:15:27;25.40;;;23.60;;
15281;SDS011;7742;44.320;19.820;2023-04-06T06:17:54;25.85;;;24.05;;
15281;SDS011;7742;44.320;19.820;2023-04-06T06:20:21;26.80;;;24.90;;
15281;SDS011;7742;44.320;19.820;2023-04-06T06:22:48;26.85;;;24.95;;
15281;SDS011;7742;44.320;19.820;2023-04-06T06:25:15;26.70;;;24.80;;
15281;SDS011;7742;44.320;19.820;2023-04-06T06:27:42;25.03;;;23.30;;
15281;SDS011;7742;44.320;19.820;2023-04-06T06:30:09;25.73;;;24.02;;
15281;SDS011;7742;44.320;19.820;2023-04-06T06:32:37;25.70;;;24.00;;
15281;SDS011;7742;44.320;19.820;2023-04-06T06:35:04;25.58;;;23.85;;
15281;SDS011;7742;44.320;19.820;2023-04-06T06:37:31;25.97;;;24.27;;
15281;SDS011;7742;44.320;19.820;2023-04-06T06:39:58;27.50;;;25.60;;
15281;SDS011;7742;44.320;19.820;2023-04-06T06:42:25;26.38;;;24.50;;
15281;SDS011;7742;44.320;19.820;2023-04-06T06:44:52;29.85;;;27.95;;
15281;SDS011;7742;44.320;19.820;2023-04-06T06:47:19;27.95;;;26.05;;
15281;SDS011;7742;44.320;19.820;2023-04-06T06:49:48;25.35;;;23.65;;
15281;SDS011;7742;44.320;19.820;2023-04-06T06:52:15;27.08;;;25.27;;
15281;SDS011;7742;44.320;19.820;2023-04-06T06:54:42;27.20;;;25.48;;
15281;SDS011;7742;44.320;19.820;2023-04-06T06:57:09;26.25;;;24.55;;
15281;SDS011;7742;44.320;19.820;2023-04-06T06:59:36;25.08;;;23.38;;
15281;SDS011;7742;44.320;19.820;2023-04-06T07:02:03;25.13;;;23.40;;
15281;SDS011;7742;44.320;19.820;2023-04-06T07:04:30;25.38;;;23.58;;
15281;SDS011;7742;44.320;19.820;2023-04-06T07:06:59;25.02;;;23.42;;
15281;SDS011;7742;44.320;19.820;2023-04-06T07:09:26;25.07;;;23.37;;
15281;SDS011;7742;44.320;19.820;2023-04-06T07:11:53;27.08;;;25.30;;
15281;SDS011;7742;44.320;19.820;2023-04-06T07:14:21;27.10;;;25.33;;
15281;SDS011;7742;44.320;19.820;2023-04-06T07:16:49;25.90;;;24.20;;
15281;SDS011;7742;44.320;19.820;2023-04-06T07:19:16;26.52;;;24.67;;
15281;SDS011;7742;44.320;19.820;2023-04-06T07:21:43;27.05;;;25.20;;
15281;SDS011;7742;44.320;19.820;2023-04-06T07:24:11;27.45;;;25.75;;
15281;SDS011;7742;44.320;19.820;2023-04-06T07:26:38;26.23;;;24.63;;
15281;SDS011;7742;44.320;19.820;2023-04-06T07:29:05;23.37;;;21.83;;
15281;SDS011;7742;44.320;19.820;2023-04-06T07:31:32;26.95;;;25.05;;
15281;SDS011;7742;44.320;19.820;2023-04-06T07:34:00;27.00;;;25.08;;
15281;SDS011;7742;44.320;19.820;2023-04-06T07:36:27;25.52;;;23.73;;
15281;SDS011;7742;44.320;19.820;2023-04-06T07:38:54;25.93;;;24.07;;
15281;SDS011;7742;44.320;19.820;2023-04-06T07:41:22;27.05;;;25.15;;
15281;SDS011;7742;44.320;19.820;2023-04-06T07:43:49;27.88;;;25.92;;
15281;SDS011;7742;44.320;19.820;2023-04-06T07:46:16;27.73;;;25.73;;
15281;SDS011;7742;44.320;19.820;2023-04-06T07:48:43;24.13;;;22.52;;
15281;SDS011;7742;44.320;19.820;2023-04-06T07:51:10;26.50;;;24.50;;
15281;SDS011;7742;44.320;19.820;2023-04-06T07:53:39;25.33;;;23.63;;
15281;SDS011;7742;44.320;19.820;2023-04-06T07:56:06;26.13;;;24.33;;
15281;SDS011;7742;44.320;19.820;2023-04-06T07:58:34;24.98;;;23.30;;
15281;SDS011;7742;44.320;19.820;2023-04-06T08:01:01;25.20;;;23.40;;
15281;SDS011;7742;44.320;19.820;2023-04-06T08:03:28;31.17;;;29.17;;
15281;SDS011;7742;44.320;19.820;2023-04-06T08:05:55;26.10;;;24.30;;
15281;SDS011;7742;44.320;19.820;2023-04-06T08:08:22;24.38;;;22.77;;
15281;SDS011;7742;44.320;19.820;2023-04-06T08:10:49;23.92;;;22.35;;
15281;SDS011;7742;44.320;19.820;2023-04-06T08:13:15;24.48;;;22.75;;
15281;SDS011;7742;44.320;19.820;2023-04-06T08:15:44;25.85;;;24.08;;
15281;SDS011;7742;44.320;19.820;2023-04-06T08:18:11;25.58;;;23.77;;
15281;SDS011;7742;44.320;19.820;2023-04-06T08:20:38;25.52;;;23.70;;
15281;SDS011;7742;44.320;19.820;2023-04-06T08:23:05;24.40;;;22.70;;
15281;SDS011;7742;44.320;19.820;2023-04-06T08:25:34;24.70;;;22.90;;
15281;SDS011;7742;44.320;19.820;2023-04-06T08:28:01;24.17;;;22.52;;
15281;SDS011;7742;44.320;19.820;2023-04-06T08:30:28;23.67;;;21.98;;
15281;SDS011;7742;44.320;19.820;2023-04-06T08:32:57;24.20;;;22.45;;
15281;SDS011;7742;44.320;19.820;2023-04-06T08:35:24;23.80;;;22.15;;
15281;SDS011;7742;44.320;19.820;2023-04-06T08:37:52;24.10;;;22.40;;
15281;SDS011;7742;44.320;19.820;2023-04-06T08:40:19;25.42;;;23.70;;
15281;SDS011;7742;44.320;19.820;2023-04-06T08:42:48;25.52;;;23.73;;
15281;SDS011;7742;44.320;19.820;2023-04-06T08:45:16;24.75;;;23.05;;
15281;SDS011;7742;44.320;19.820;2023-04-06T08:47:43;25.17;;;23.27;;
15281;SDS011;7742;44.320;19.820;2023-04-06T08:50:11;26.02;;;24.02;;
15281;SDS011;7742;44.320;19.820;2023-04-06T08:52:38;24.65;;;23.00;;
15281;SDS011;7742;44.320;19.820;2023-04-06T08:55:07;23.23;;;21.52;;
15281;SDS011;7742;44.320;19.820;2023-04-06T08:57:34;22.63;;;21.02;;
15281;SDS011;7742;44.320;19.820;2023-04-06T09:00:02;22.48;;;20.88;;
15281;SDS011;7742;44.320;19.820;2023-04-06T09:02:29;24.30;;;22.60;;
15281;SDS011;7742;44.320;19.820;2023-04-06T09:04:56;23.23;;;21.63;;
15281;SDS011;7742;44.320;19.820;2023-04-06T09:07:25;23.25;;;21.55;;
15281;SDS011;7742;44.320;19.820;2023-04-06T09:09:52;24.13;;;22.33;;
15281;SDS011;7742;44.320;19.820;2023-04-06T09:12:22;24.70;;;22.92;;
15281;SDS011;7742;44.320;19.820;2023-04-06T09:14:49;23.50;;;21.80;;
15281;SDS011;7742;44.320;19.820;2023-04-06T09:17:19;23.30;;;21.70;;
15281;SDS011;7742;44.320;19.820;2023-04-06T09:19:47;23.40;;;21.75;;
15281;SDS011;7742;44.320;19.820;2023-04-06T09:22:14;23.40;;;21.73;;
15281;SDS011;7742;44.320;19.820;2023-04-06T09:24:43;22.80;;;21.23;;
15281;SDS011;7742;44.320;19.820;2023-04-06T09:27:10;22.73;;;21.13;;
15281;SDS011;7742;44.320;19.820;2023-04-06T09:29:37;23.52;;;21.83;;
15281;SDS011;7742;44.320;19.820;2023-04-06T09:32:04;22.55;;;21.02;;
15281;SDS011;7742;44.320;19.820;2023-04-06T09:34:31;22.83;;;21.33;;
15281;SDS011;7742;44.320;19.820;2023-04-06T09:36:58;22.42;;;20.92;;
15281;SDS011;7742;44.320;19.820;2023-04-06T09:39:25;22.90;;;21.38;;
15281;SDS011;7742;44.320;19.820;2023-04-06T09:41:53;22.85;;;21.35;;
15281;SDS011;7742;44.320;19.820;2023-04-06T09:44:21;22.40;;;20.90;;
15281;SDS011;7742;44.320;19.820;2023-04-06T09:46:49;23.35;;;21.70;;
15281;SDS011;7742;44.320;19.820;2023-04-06T09:49:16;21.80;;;20.27;;
15281;SDS011;7742;44.320;19.820;2023-04-06T09:51:44;20.98;;;19.52;;
15281;SDS011;7742;44.320;19.820;2023-04-06T09:54:11;21.80;;;20.20;;
15281;SDS011;7742;44.320;19.820;2023-04-06T09:56:44;21.38;;;19.88;;
15281;SDS011;7742;44.320;19.820;2023-04-06T09:59:13;23.65;;;22.05;;
15281;SDS011;7742;44.320;19.820;2023-04-06T10:01:40;22.10;;;20.60;;
15281;SDS011;7742;44.320;19.820;2023-04-06T10:04:12;23.65;;;22.08;;
15281;SDS011;7742;44.320;19.820;2023-04-06T10:06:40;22.98;;;21.48;;
15281;SDS011;7742;44.320;19.820;2023-04-06T10:09:07;23.77;;;22.17;;
15281;SDS011;7742;44.320;19.820;2023-04-06T10:11:34;22.67;;;21.08;;
15281;SDS011;7742;44.320;19.820;2023-04-06T10:14:01;23.20;;;21.60;;
15281;SDS011;7742;44.320;19.820;2023-04-06T10:16:29;25.58;;;23.83;;
15281;SDS011;7742;44.320;19.820;2023-04-06T10:18:58;23.77;;;22.17;;
15281;SDS011;7742;44.320;19.820;2023-04-06T10:21:27;22.13;;;20.63;;
15281;SDS011;7742;44.320;19.820;2023-04-06T10:23:57;21.98;;;20.45;;
15281;SDS011;7742;44.320;19.820;2023-04-06T10:26:25;23.67;;;22.08;;
15281;SDS011;7742;44.320;19.820;2023-04-06T10:28:52;23.58;;;21.88;;
15281;SDS011;7742;44.320;19.820;2023-04-06T10:31:26;24.70;;;22.92;;
15281;SDS011;7742;44.320;19.820;2023-04-06T10:33:55;22.33;;;20.73;;
15281;SDS011;7742;44.320;19.820;2023-04-06T10:36:22;24.02;;;22.38;;
15281;SDS011;7742;44.320;19.820;2023-04-06T10:38:53;24.30;;;22.60;;
15281;SDS011;7742;44.320;19.820;2023-04-06T10:41:20;22.83;;;21.33;;
15281;SDS011;7742;44.320;19.820;2023-04-06T10:43:54;23.40;;;21.73;;
15281;SDS011;7742;44.320;19.820;2023-04-06T10:46:24;24.27;;;22.58;;
15281;SDS011;7742;44.320;19.820;2023-04-06T10:48:51;23.55;;;21.88;;
15281;SDS011;7742;44.320;19.820;2023-04-06T10:51:23;24.17;;;22.48;;
15281;SDS011;7742;44.320;19.820;2023-04-06T10:53:52;22.77;;;21.17;;
15281;SDS011;7742;44.320;19.820;2023-04-06T10:56:21;21.50;;;20.10;;
15281;SDS011;7742;44.320;19.820;2023-04-06T10:58:48;21.55;;;20.02;;
15281;SDS011;7742;44.320;19.820;2023-04-06T11:01:15;21.52;;;20.00;;
15281;SDS011;7742;44.320;19.820;2023-04-06T11:03:43;22.30;;;20.80;;
15281;SDS011;7742;44.320;19.820;2023-04-06T11:06:11;22.45;;;20.95;;
15281;SDS011;7742;44.320;19.820;2023-04-06T11:08:45;23.50;;;21.90;;
15281;SDS011;7742;44.320;19.820;2023-04-06T11:11:13;21.87;;;20.37;;
15281;SDS011;7742;44.320;19.820;2023-04-06T11:13:41;21.92;;;20.38;;
15281;SDS011;7742;44.320;19.820;2023-04-06T11:16:13;21.40;;;19.90;;
15281;SDS011;7742;44.320;19.820;2023-04-06T11:18:50;20.93;;;19.53;;
15281;SDS011;7742;44.320;19.820;2023-04-06T11:21:17;20.52;;;19.13;;
15281;SDS011;7742;44.320;19.820;2023-04-06T11:23:45;20.55;;;19.08;;
15281;SDS011;7742;44.320;19.820;2023-04-06T11:26:12;20.38;;;18.98;;
15281;SDS011;7742;44.320;19.820;2023-04-06T11:28:39;19.93;;;18.63;;
15281;SDS011;7742;44.320;19.820;2023-04-06T11:31:07;19.05;;;17.85;;
15281;SDS011;7742;44.320;19.820;2023-04-06T11:33:36;19.95;;;18.65;;
15281;SDS011;7742;44.320;19.820;2023-04-06T11:36:04;19.63;;;18.33;;
15281;SDS011;7742;44.320;19.820;2023-04-06T11:38:31;19.70;;;18.40;;
15281;SDS011;7742;44.320;19.820;2023-04-06T11:41:00;20.13;;;18.83;;
15281;SDS011;7742;44.320;19.820;2023-04-06T11:43:27;20.63;;;19.33;;
15281;SDS011;7742;44.320;19.820;2023-04-06T11:45:59;20.88;;;19.52;;
15281;SDS011;7742;44.320;19.820;2023-04-06T11:48:26;19.38;;;17.98;;
15281;SDS011;7742;44.320;19.820;2023-04-06T11:50:55;21.20;;;19.75;;
15281;SDS011;7742;44.320;19.820;2023-04-06T11:53:22;21.88;;;20.40;;
15281;SDS011;7742;44.320;19.820;2023-04-06T11:55:48;22.48;;;20.98;;
15281;SDS011;7742;44.320;19.820;2023-04-06T11:58:17;22.08;;;20.58;;
15281;SDS011;7742;44.320;19.820;2023-04-06T12:00:43;20.15;;;18.92;;
15281;SDS011;7742;44.320;19.820;2023-04-06T12:03:11;19.92;;;18.52;;
15281;SDS011;7742;44.320;19.820;2023-04-06T12:05:38;21.47;;;19.97;;
15281;SDS011;7742;44.320;19.820;2023-04-06T12:08:05;23.08;;;21.45;;
15281;SDS011;7742;44.320;19.820;2023-04-06T12:10:32;21.90;;;20.40;;
15281;SDS011;7742;44.320;19.820;2023-04-06T12:12:59;20.90;;;19.13;;
15281;SDS011;7742;44.320;19.820;2023-04-06T12:15:28;19.85;;;18.35;;
15281;SDS011;7742;44.320;19.820;2023-04-06T12:17:54;18.90;;;17.50;;
15281;SDS011;7742;44.320;19.820;2023-04-06T12:20:21;18.10;;;16.73;;
15281;SDS011;7742;44.320;19.820;2023-04-06T12:22:48;17.63;;;16.42;;
15281;SDS011;7742;44.320;19.820;2023-04-06T12:25:15;18.10;;;16.90;;
15281;SDS011;7742;44.320;19.820;2023-04-06T12:27:42;17.83;;;16.58;;
15281;SDS011;7742;44.320;19.820;2023-04-06T12:30:09;19.77;;;18.47;;
15281;SDS011;7742;44.320;19.820;2023-04-06T12:32:37;20.45;;;19.15;;
15281;SDS011;7742;44.320;19.820;2023-04-06T12:35:05;21.73;;;20.25;;
15281;SDS011;7742;44.320;19.820;2023-04-06T12:37:34;22.05;;;20.63;;
15281;SDS011;7742;44.320;19.820;2023-04-06T12:40:02;23.30;;;21.85;;
15281;SDS011;7742;44.320;19.820;2023-04-06T12:42:29;21.73;;;20.33;;
15281;SDS011;7742;44.320;19.820;2023-04-06T12:44:56;21.55;;;20.15;;
15281;SDS011;7742;44.320;19.820;2023-04-06T12:47:23;21.17;;;19.52;;
15281;SDS011;7742;44.320;19.820;2023-04-06T12:49:52;19.55;;;18.25;;
15281;SDS011;7742;44.320;19.820;2023-04-06T12:52:20;21.30;;;19.80;;
15281;SDS011;7742;44.320;19.820;2023-04-06T12:54:47;20.52;;;19.20;;
15281;SDS011;7742;44.320;19.820;2023-04-06T12:57:14;20.73;;;19.43;;
15281;SDS011;7742;44.320;19.820;2023-04-06T12:59:42;20.50;;;19.20;;
15281;SDS011;7742;44.320;19.820;2023-04-06T13:02:10;19.75;;;18.27;;
15281;SDS011;7742;44.320;19.820;2023-04-06T13:04:38;21.08;;;19.60;;
15281;SDS011;7742;44.320;19.820;2023-04-06T13:07:07;20.05;;;18.67;;
15281;SDS011;7742;44.320;19.820;2023-04-06T13:09:34;20.80;;;19.40;;
15281;SDS011;7742;44.320;19.820;2023-04-06T13:12:00;20.90;;;19.50;;
15281;SDS011;7742;44.320;19.820;2023-04-06T13:14:27;20.65;;;19.25;;
15281;SDS011;7742;44.320;19.820;2023-04-06T13:16:54;20.23;;;18.90;;
15281;SDS011;7742;44.320;19.820;2023-04-06T13:19:21;19.80;;;18.40;;
15281;SDS011;7742;44.320;19.820;2023-04-06T13:21:48;19.23;;;18.00;;
15281;SDS011;7742;44.320;19.820;2023-04-06T13:24:17;19.42;;;18.17;;
15281;SDS011;7742;44.320;19.820;2023-04-06T13:26:44;19.40;;;18.05;;
15281;SDS011;7742;44.320;19.820;2023-04-06T13:29:11;20.52;;;19.17;;
15281;SDS011;7742;44.320;19.820;2023-04-06T13:31:38;20.90;;;19.50;;
15281;SDS011;7742;44.320;19.820;2023-04-06T13:34:05;20.52;;;19.13;;
15281;SDS011;7742;44.320;19.820;2023-04-06T13:36:32;19.77;;;18.48;;
15281;SDS011;7742;44.320;19.820;2023-04-06T13:38:59;19.52;;;18.25;;
15281;SDS011;7742;44.320;19.820;2023-04-06T13:41:28;19.35;;;18.02;;
15281;SDS011;7742;44.320;19.820;2023-04-06T13:43:56;20.15;;;18.75;;
15281;SDS011;7742;44.320;19.820;2023-04-06T13:46:37;20.80;;;19.40;;
15281;SDS011;7742;44.320;19.820;2023-04-06T13:49:04;19.55;;;18.25;;
15281;SDS011;7742;44.320;19.820;2023-04-06T13:51:31;19.80;;;18.50;;
15281;SDS011;7742;44.320;19.820;2023-04-06T13:54:00;21.15;;;19.75;;
15281;SDS011;7742;44.320;19.820;2023-04-06T13:56:35;21.13;;;19.73;;
15281;SDS011;7742;44.320;19.820;2023-04-06T14:01:29;19.77;;;18.48;;
15281;SDS011;7742;44.320;19.820;2023-04-06T14:03:55;20.00;;;18.73;;
15281;SDS011;7742;44.320;19.820;2023-04-06T14:06:22;22.80;;;21.30;;
15281;SDS011;7742;44.320;19.820;2023-04-06T14:08:49;19.53;;;18.33;;
15281;SDS011;7742;44.320;19.820;2023-04-06T14:11:17;20.17;;;18.88;;
15281;SDS011;7742;44.320;19.820;2023-04-06T14:13:45;19.52;;;18.33;;
15281;SDS011;7742;44.320;19.820;2023-04-06T14:16:12;19.27;;;18.05;;
15281;SDS011;7742;44.320;19.820;2023-04-06T14:18:38;18.00;;;16.80;;
15281;SDS011;7742;44.320;19.820;2023-04-06T14:21:05;18.33;;;17.23;;
15281;SDS011;7742;44.320;19.820;2023-04-06T14:23:33;18.42;;;17.23;;
15281;SDS011;7742;44.320;19.820;2023-04-06T14:26:00;19.33;;;18.02;;
15281;SDS011;7742;44.320;19.820;2023-04-06T14:28:28;19.73;;;18.33;;
15281;SDS011;7742;44.320;19.820;2023-04-06T14:30:58;20.20;;;18.90;;